Time;durP1;ratioP1;P1;durP2;ratioP2;P2;SDS_P1;SDS_P2;PMS_P1;PMS_P2;Temp;Humidity;BMP_temperature;BMP_pressure;BME280_temperature;BME280_humidity;BME280_pressure;Samples;Min_cycle;Max_cycle;Signal;HPM_P1;HPM_P2
2022/03/09 00:01:47;;;;;;;;;;;;;;;;;;5009998;28;19914;-62
2022/03/09 00:04:14;;;;;;;;;;;;;;;;;;5010816;28;19951;-61
2022/03/09 00:06:40;;;;;;;;;;;;;;;;;;5007370;28;19909;-61
2022/03/09 00:09:07;;;;;;;;;;;;;;;;;;5009235;28;19930;-59
2022/03/09 00:11:33;;;;;;;;;;;;;;;;;;5009511;28;19952;-61
2022/03/09 00:14:00;;;;;;;;;;;;;;;;;;5011439;28;19914;-56
2022/03/09 00:16:26;;;;;;;;;;;;;;;;;;5012856;28;19923;-61
2022/03/09 00:18:52;;;;;;;;;;;;;;;;;;5012983;28;19925;-62
2022/03/09 00:21:19;;;;;;;;;;;;;;;;;;5012964;28;19913;-61
2022/03/09 00:23:45;;;;;;;;;;;;;;;;;;5012166;28;20004;-62
2022/03/09 00:26:12;;;;;;;;;;;;;;;;;;5012734;28;19936;-56
2022/03/09 00:28:38;;;;;;;;;;;;;;;;;;5013204;28;19913;-61
2022/03/09 00:31:05;;;;;;;;;;;;;;;;;;5012953;28;19983;-60
2022/03/09 00:33:33;;;;;;;;;;;;;;;;;;5012241;28;19917;-60
2022/03/09 00:35:59;;;;;;;;;;;;;;;;;;5012275;28;19982;-59
2022/03/09 00:38:26;;;;;;;;;;;;;;;;;;5012399;28;19917;-53
2022/03/09 00:40:52;;;;;;;;;;;;;;;;;;5012077;28;20052;-62
2022/03/09 00:43:19;;;;;;;;;;;;;;;;;;5012356;28;20044;-57
2022/03/09 00:45:46;;;;;;;;;;;;;;;;;;5012513;28;19950;-61
2022/03/09 00:48:13;;;;;;;;;;;;;;;;;;5012569;28;19913;-61
2022/03/09 00:50:39;;;;;;;;;;;;;;;;;;5012371;28;19922;-65
2022/03/09 00:53:05;;;;;;;;;;;;;;;;;;5012531;28;19940;-61
2022/03/09 00:55:32;;;;;;;;;;;;;;;;;;5012506;28;19909;-62
2022/03/09 00:57:58;;;;;;;;;;;;;;;;;;5012925;28;20392;-60
2022/03/09 01:00:25;;;;;;;;;;;;;;;;;;5013013;28;19909;-58
2022/03/09 01:02:51;;;;;;;;;;;;;;;;;;5012128;28;19953;-59
2022/03/09 01:05:18;;;;;;;;;;;;;;;;;;5012160;28;19916;-61
2022/03/09 01:07:44;;;;;;;;;;;;;;;;;;5012300;28;19929;-59
2022/03/09 01:10:11;;;;;;;;;;;;;;;;;;5012067;28;19925;-52
2022/03/09 01:12:37;;;;;;;;;;;;;;;;;;5016746;28;19925;-53
2022/03/09 01:15:04;;;;;;;;;;;;;;;;;;5020462;28;19917;-52
2022/03/09 01:17:31;;;;;;;;;;;;;;;;;;5012010;28;19914;-57
2022/03/09 01:19:57;;;;;;;;;;;;;;;;;;5012479;28;20007;-58
2022/03/09 01:22:24;;;;;;;;;;;;;;;;;;5011036;28;19954;-61
2022/03/09 01:24:50;;;;;;;;;;;;;;;;;;5012455;28;19937;-58
2022/03/09 01:27:17;;;;;;;;;;;;;;;;;;5011574;28;19932;-62
2022/03/09 01:29:43;;;;;;;;;;;;;;;;;;5027333;28;19918;-59
2022/03/09 01:32:10;;;;;;;;;;;;;;;;;;5011825;28;19999;-61
2022/03/09 01:34:36;;;;;;;;;;;;;;;;;;5027120;28;19917;-59
2022/03/09 01:37:03;;;;;;;;;;;;;;;;;;5012077;28;19925;-57
2022/03/09 01:39:29;;;;;;;;;;;;;;;;;;5011797;28;19913;-52
2022/03/09 01:41:55;;;;;;;;;;;;;;;;;;5011339;28;19968;-51
2022/03/09 01:44:22;;;;;;;;;;;;;;;;;;5011706;28;19917;-58
2022/03/09 01:46:48;;;;;;;;;;;;;;;;;;5011386;28;20352;-54
2022/03/09 01:49:15;;;;;;;;;;;;;;;;;;5012161;28;20354;-58
2022/03/09 01:51:41;;;;;;;;;;;;;;;;;;5011767;28;20291;-60
2022/03/09 01:54:08;;;;;;;;;;;;;;;;;;5011429;28;20013;-52
2022/03/09 01:56:35;;;;;;;;;;;;;;;;;;5011801;28;19968;-57
2022/03/09 01:59:02;;;;;;;;;;;;;;;;;;5011926;28;19918;-57
2022/03/09 02:01:28;;;;;;;;;;;;;;;;;;5012132;28;19909;-58
2022/03/09 02:03:56;;;;;;;;;;;;;;;;;;5011559;28;19936;-57
2022/03/09 02:06:22;;;;;;;;;;;;;;;;;;5011841;28;19914;-59
2022/03/09 02:11:33;;;;;;;;;;;;;;;;;;5011035;28;20329;-59
2022/03/09 02:13:59;;;;;;;;;;;;;;;;;;5010366;28;20360;-63
2022/03/09 02:16:26;;;;;;;;;;;;;;;;;;5011626;28;19917;-57
2022/03/09 02:18:52;;;;;;;;;;;;;;;;;;5011886;28;20327;-58
2022/03/09 02:21:19;;;;;;;;;;;;;;;;;;5011311;28;19983;-61
2022/03/09 02:23:45;;;;;;;;;;;;;;;;;;5011480;28;20309;-62
2022/03/09 02:26:12;;;;;;;;;;;;;;;;;;5011886;28;19913;-58
2022/03/09 02:28:38;;;;;;;;;;;;;;;;;;5011730;28;19909;-49
2022/03/09 02:31:05;;;;;;;;;;;;;;;;;;5012519;28;19914;-56
2022/03/09 02:33:31;;;;;;;;;;;;;;;;;;5012035;28;19914;-62
2022/03/09 02:35:58;;;;;;;;;;;;;;;;;;5013808;28;20275;-54
2022/03/09 02:38:24;;;;;;;;;;;;;;;;;;5015261;28;19914;-62
2022/03/09 02:40:51;;;;;;;;;;;;;;;;;;5014848;28;20331;-59
2022/03/09 02:43:17;;;;;;;;;;;;;;;;;;5015252;28;20383;-57
2022/03/09 02:45:44;;;;;;;;;;;;;;;;;;5014686;28;19916;-59
2022/03/09 02:48:10;;;;;;;;;;;;;;;;;;5014730;28;20352;-62
2022/03/09 02:50:37;;;;;;;;;;;;;;;;;;5007097;28;19921;-57
2022/03/09 02:53:03;;;;;;;;;;;;;;;;;;5010107;28;19920;-56
2022/03/09 02:55:29;;;;;;;;;;;;;;;;;;5012492;28;20295;-57
2022/03/09 02:57:56;;;;;;;;;;;;;;;;;;5011817;28;19987;-58
2022/03/09 03:00:22;;;;;;;;;;;;;;;;;;5011688;28;20376;-50
2022/03/09 03:02:49;;;;;;;;;;;;;;;;;;5009585;28;20284;-60
2022/03/09 03:05:15;;;;;;;;;;;;;;;;;;5011160;28;19913;-61
2022/03/09 03:07:42;;;;;;;;;;;;;;;;;;5011327;28;19913;-64
2022/03/09 03:10:08;;;;;;;;;;;;;;;;;;5011696;28;19926;-55
2022/03/09 03:12:34;;;;;;;;;;;;;;;;;;5009042;28;19972;-58
2022/03/09 03:15:02;;;;;;;;;;;;;;;;;;5009460;28;19913;-62
2022/03/09 03:17:28;;;;;;;;;;;;;;;;;;5010841;28;19988;-61
2022/03/09 03:19:55;;;;;;;;;;;;;;;;;;5010493;28;19972;-52
2022/03/09 03:22:21;;;;;;;;;;;;;;;;;;5008359;28;19995;-57
2022/03/09 03:24:48;;;;;;;;;;;;;;;;;;5011449;28;20348;-59
2022/03/09 03:27:14;;;;;;;;;;;;;;;;;;5011344;28;19909;-63
2022/03/09 03:29:41;;;;;;;;;;;;;;;;;;5010514;28;20279;-62
2022/03/09 03:32:10;;;;;;;;;;;;;;;;;;5008308;28;19909;-55
2022/03/09 03:34:36;;;;;;;;;;;;;;;;;;5010694;28;19909;-45
2022/03/09 03:37:03;;;;;;;;;;;;;;;;;;5009132;28;19924;-50
2022/03/09 03:39:29;;;;;;;;;;;;;;;;;;5010940;28;19917;-54
2022/03/09 03:41:55;;;;;;;;;;;;;;;;;;5008345;28;20016;-60
2022/03/09 03:44:22;;;;;;;;;;;;;;;;;;5010440;28;19924;-56
2022/03/09 03:46:48;;;;;;;;;;;;;;;;;;5009532;28;19909;-61
2022/03/09 03:49:15;;;;;;;;;;;;;;;;;;5010453;28;19913;-63
2022/03/09 03:51:41;;;;;;;;;;;;;;;;;;5007366;28;20103;-63
2022/03/09 03:54:09;;;;;;;;;;;;;;;;;;4992201;28;19909;-64
2022/03/09 03:56:36;;;;;;;;;;;;;;;;;;5008779;28;20004;-63
2022/03/09 03:59:02;;;;;;;;;;;;;;;;;;5010403;28;19910;-60
2022/03/09 04:01:29;;;;;;;;;;;;;;;;;;5006881;28;19913;-62
2022/03/09 04:03:55;;;;;;;;;;;;;;;;;;5009880;28;19909;-54
2022/03/09 04:06:22;;;;;;;;;;;;;;;;;;5010634;28;19917;-63
2022/03/09 04:08:48;;;;;;;;;;;;;;;;;;5010091;28;19917;-55
2022/03/09 04:11:15;;;;;;;;;;;;;;;;;;4989371;28;19928;-63
2022/03/09 04:13:42;;;;;;;;;;;;;;;;;;5008588;28;19913;-52
2022/03/09 04:16:09;;;;;;;;;;;;;;;;;;5009801;28;19918;-54
2022/03/09 04:18:37;;;;;;;;;;;;;;;;;;5004418;28;19959;-58
2022/03/09 04:21:03;;;;;;;;;;;;;;;;;;5008562;28;19910;-52
2022/03/09 04:23:33;;;;;;;;;;;;;;;;;;5008832;28;19989;-49
2022/03/09 04:26:00;;;;;;;;;;;;;;;;;;5007990;28;19913;-62
2022/03/09 04:28:27;;;;;;;;;;;;;;;;;;5009965;28;19913;-54
2022/03/09 04:30:53;;;;;;;;;;;;;;;;;;5009333;28;19917;-56
2022/03/09 04:33:19;;;;;;;;;;;;;;;;;;5007324;28;19977;-63
2022/03/09 04:35:46;;;;;;;;;;;;;;;;;;5009536;28;19913;-60
2022/03/09 04:38:22;;;;;;;;;;;;;;;;;;5009756;28;19928;-53
2022/03/09 04:40:48;;;;;;;;;;;;;;;;;;4992233;28;19925;-58
2022/03/09 04:43:15;;;;;;;;;;;;;;;;;;4988375;28;19913;-60
2022/03/09 04:45:45;;;;;;;;;;;;;;;;;;5009145;28;19984;-59
2022/03/09 04:48:12;;;;;;;;;;;;;;;;;;5008526;28;20348;-62
2022/03/09 04:50:38;;;;;;;;;;;;;;;;;;4990750;28;20320;-53
2022/03/09 04:53:05;;;;;;;;;;;;;;;;;;5006220;28;19937;-65
2022/03/09 04:55:31;;;;;;;;;;;;;;;;;;5008962;28;19975;-60
2022/03/09 04:57:58;;;;;;;;;;;;;;;;;;5008118;28;19921;-62
2022/03/09 05:00:25;;;;;;;;;;;;;;;;;;5009379;28;19943;-65
2022/03/09 05:02:51;;;;;;;;;;;;;;;;;;4988211;28;19914;-63
2022/03/09 05:05:17;;;;;;;;;;;;;;;;;;5008861;28;20360;-60
2022/03/09 05:07:44;;;;;;;;;;;;;;;;;;5008703;28;19918;-49
2022/03/09 05:10:10;;;;;;;;;;;;;;;;;;5009154;28;19928;-62
2022/03/09 05:12:37;;;;;;;;;;;;;;;;;;5006300;28;19914;-62
2022/03/09 05:15:03;;;;;;;;;;;;;;;;;;5008101;28;20418;-62
2022/03/09 05:17:30;;;;;;;;;;;;;;;;;;5009634;28;19936;-63
2022/03/09 05:19:56;;;;;;;;;;;;;;;;;;5008586;28;20256;-62
2022/03/09 05:22:23;;;;;;;;;;;;;;;;;;5005539;28;19910;-56
2022/03/09 05:24:49;;;;;;;;;;;;;;;;;;5008325;28;19917;-64
2022/03/09 05:27:16;;;;;;;;;;;;;;;;;;5008473;28;20097;-56
2022/03/09 05:29:42;;;;;;;;;;;;;;;;;;5008513;28;20008;-63
2022/03/09 05:32:09;;;;;;;;;;;;;;;;;;4987479;28;19910;-48
2022/03/09 05:34:35;;;;;;;;;;;;;;;;;;5008734;28;19964;-59
2022/03/09 05:37:02;;;;;;;;;;;;;;;;;;5008844;28;21499;-64
2022/03/09 05:39:28;;;;;;;;;;;;;;;;;;5008431;28;20015;-42
2022/03/09 05:41:55;;;;;;;;;;;;;;;;;;5005657;28;19941;-61
2022/03/09 05:44:21;;;;;;;;;;;;;;;;;;5008920;28;20378;-55
2022/03/09 05:46:47;;;;;;;;;;;;;;;;;;5008356;28;19918;-59
2022/03/09 05:49:14;;;;;;;;;;;;;;;;;;5009062;28;20000;-42
2022/03/09 05:51:40;;;;;;;;;;;;;;;;;;5011075;28;20012;-65
2022/03/09 05:54:07;;;;;;;;;;;;;;;;;;5004731;28;20393;-50
2022/03/09 05:56:33;;;;;;;;;;;;;;;;;;4991627;28;20337;-63
2022/03/09 05:59:00;;;;;;;;;;;;;;;;;;4991206;28;20281;-60
2022/03/09 06:01:26;;;;;;;;;;;;;;;;;;4990687;28;19917;-42
2022/03/09 06:03:53;;;;;;;;;;;;;;;;;;4991249;28;19972;-65
2022/03/09 06:06:19;;;;;;;;;;;;;;;;;;4990455;28;19972;-51
2022/03/09 06:08:46;;;;;;;;;;;;;;;;;;4991602;28;20383;-57
2022/03/09 06:11:12;;;;;;;;;;;;;;;;;;4976303;28;20004;-57
2022/03/09 06:13:39;;;;;;;;;;;;;;;;;;4994642;28;19965;-55
2022/03/09 06:16:08;;;;;;;;;;;;;;;;;;4993083;28;20021;-63
2022/03/09 06:18:35;;;;;;;;;;;;;;;;;;4976888;28;19910;-49
2022/03/09 06:21:01;;;;;;;;;;;;;;;;;;4994388;28;19914;-57
2022/03/09 06:23:27;;;;;;;;;;;;;;;;;;4995259;28;19996;-60
2022/03/09 06:25:54;;;;;;;;;;;;;;;;;;4994483;28;19910;-59
2022/03/09 06:28:20;;;;;;;;;;;;;;;;;;4994621;28;19921;-54
2022/03/09 06:30:47;;;;;;;;;;;;;;;;;;4994687;28;20004;-67
2022/03/09 06:33:13;;;;;;;;;;;;;;;;;;4995411;28;19916;-54
2022/03/09 06:35:40;;;;;;;;;;;;;;;;;;4993932;28;19910;-55
2022/03/09 06:38:06;;;;;;;;;;;;;;;;;;4994392;28;20368;-58
2022/03/09 06:40:33;;;;;;;;;;;;;;;;;;4994047;28;19967;-68
2022/03/09 06:43:00;;;;;;;;;;;;;;;;;;4995151;28;19918;-71
2022/03/09 06:45:26;;;;;;;;;;;;;;;;;;4977302;28;20310;-66
2022/03/09 06:47:52;;;;;;;;;;;;;;;;;;4995374;28;19948;-65
2022/03/09 06:50:19;;;;;;;;;;;;;;;;;;4994355;28;20431;-59
2022/03/09 06:52:45;;;;;;;;;;;;;;;;;;4994919;28;19940;-61
2022/03/09 06:55:12;;;;;;;;;;;;;;;;;;4994389;28;20320;-58
2022/03/09 06:57:38;;;;;;;;;;;;;;;;;;4994711;28;19909;-56
2022/03/09 07:00:05;;;;;;;;;;;;;;;;;;4994720;28;19910;-52
2022/03/09 07:02:31;;;;;;;;;;;;;;;;;;4994744;28;19917;-53
2022/03/09 07:04:58;;;;;;;;;;;;;;;;;;4976133;28;20019;-52
2022/03/09 07:07:24;;;;;;;;;;;;;;;;;;4994075;28;19985;-65
2022/03/09 07:09:51;;;;;;;;;;;;;;;;;;4994504;28;19936;-56
2022/03/09 07:12:17;;;;;;;;;;;;;;;;;;4994427;28;19910;-67
2022/03/09 07:14:44;;;;;;;;;;;;;;;;;;4993791;28;19914;-69
2022/03/09 07:17:10;;;;;;;;;;;;;;;;;;4994601;28;20284;-68
2022/03/09 07:19:37;;;;;;;;;;;;;;;;;;4994030;28;20379;-67
2022/03/09 07:22:06;;;;;;;;;;;;;;;;;;4993632;28;19917;-67
2022/03/09 07:24:34;;;;;;;;;;;;;;;;;;4994194;28;19909;-69
2022/03/09 07:27:00;;;;;;;;;;;;;;;;;;4994095;28;19976;-68
2022/03/09 07:29:27;;;;;;;;;;;;;;;;;;4994279;28;19914;-70
2022/03/09 07:31:54;;;;;;;;;;;;;;;;;;4994458;28;19914;-71
2022/03/09 07:34:22;;;;;;;;;;;;;;;;;;4993576;28;19910;-68
2022/03/09 07:36:49;;;;;;;;;;;;;;;;;;4975894;28;20463;-70
2022/03/09 07:39:16;;;;;;;;;;;;;;;;;;4994183;28;19936;-67
2022/03/09 07:41:42;;;;;;;;;;;;;;;;;;4993695;28;19917;-68
2022/03/09 07:44:08;;;;;;;;;;;;;;;;;;4993865;28;20005;-68
2022/03/09 07:46:35;;;;;;;;;;;;;;;;;;4994042;28;19910;-69
2022/03/09 07:49:02;;;;;;;;;;;;;;;;;;4994367;28;19917;-68
2022/03/09 07:51:29;;;;;;;;;;;;;;;;;;4976346;28;19937;-71
2022/03/09 07:53:55;;;;;;;;;;;;;;;;;;4993877;28;19910;-69
2022/03/09 07:56:22;;;;;;;;;;;;;;;;;;4994147;28;19956;-68
2022/03/09 07:58:48;;;;;;;;;;;;;;;;;;4993544;28;20328;-69
2022/03/09 08:01:15;;;;;;;;;;;;;;;;;;4993806;28;19937;-67
2022/03/09 08:03:41;;;;;;;;;;;;;;;;;;4976070;28;20426;-67
2022/03/09 08:06:07;;;;;;;;;;;;;;;;;;4993491;28;19922;-64
2022/03/09 08:08:34;;;;;;;;;;;;;;;;;;4993436;28;20249;-65
2022/03/09 08:11:00;;;;;;;;;;;;;;;;;;4993183;28;19926;-67
2022/03/09 08:13:27;;;;;;;;;;;;;;;;;;4993233;28;20028;-66
2022/03/09 08:15:53;;;;;;;;;;;;;;;;;;4993118;28;19917;-69
2022/03/09 08:18:20;;;;;;;;;;;;;;;;;;4993763;28;20004;-66
2022/03/09 08:20:46;;;;;;;;;;;;;;;;;;4993509;28;19910;-66
2022/03/09 08:23:13;;;;;;;;;;;;;;;;;;4993682;28;19957;-67
2022/03/09 08:25:40;;;;;;;;;;;;;;;;;;4975446;28;19917;-67
2022/03/09 08:28:06;;;;;;;;;;;;;;;;;;4993089;28;19910;-70
2022/03/09 08:30:33;;;;;;;;;;;;;;;;;;4993027;28;19924;-67
2022/03/09 08:32:59;;;;;;;;;;;;;;;;;;4992554;28;20000;-68
2022/03/09 08:35:26;;;;;;;;;;;;;;;;;;4993228;28;19976;-66
2022/03/09 08:37:52;;;;;;;;;;;;;;;;;;4992344;28;20011;-67
2022/03/09 08:43:03;;;;;;;;;;;;;;;;;;4994833;28;20551;-63
2022/03/09 08:45:30;;;;;;;;;;;;;;;;;;5006604;28;20000;-63
2022/03/09 08:47:56;;;;;;;;;;;;;;;;;;5009794;28;19914;-66
2022/03/09 08:50:23;;;;;;;;;;;;;;;;;;5006675;28;19924;-66
2022/03/09 08:52:52;;;;;;;;;;;;;;;;;;4989101;28;20360;-61
2022/03/09 08:55:20;;;;;;;;;;;;;;;;;;5007755;28;19909;-64
2022/03/09 08:57:46;;;;;;;;;;;;;;;;;;5007318;28;20032;-64
2022/03/09 09:00:13;;;;;;;;;;;;;;;;;;5006784;28;19909;-65
2022/03/09 09:02:39;;;;;;;;;;;;;;;;;;5002080;28;19925;-60
2022/03/09 09:05:06;;;;;;;;;;;;;;;;;;5006115;28;20418;-64
2022/03/09 09:07:41;;;;;;;;;;;;;;;;;;5005322;28;19984;-61
2022/03/09 09:10:07;;;;;;;;;;;;;;;;;;4988761;28;19932;-57
2022/03/09 09:12:34;;;;;;;;;;;;;;;;;;5010133;28;20371;-62
2022/03/09 09:15:00;;;;;;;;;;;;;;;;;;5004658;28;19944;-47
2022/03/09 09:17:27;;;;;;;;;;;;;;;;;;5009075;28;20009;-56
2022/03/09 09:19:53;;;;;;;;;;;;;;;;;;5009256;28;19944;-52
2022/03/09 09:22:20;;;;;;;;;;;;;;;;;;5009790;28;20320;-46
2022/03/09 09:24:46;;;;;;;;;;;;;;;;;;5007428;28;20372;-49
2022/03/09 09:27:13;;;;;;;;;;;;;;;;;;5008710;28;19939;-47
2022/03/09 09:29:39;;;;;;;;;;;;;;;;;;5009187;28;19922;-50
2022/03/09 09:32:06;;;;;;;;;;;;;;;;;;5009450;28;19909;-53
2022/03/09 09:34:32;;;;;;;;;;;;;;;;;;5005980;28;19933;-70
2022/03/09 09:37:00;;;;;;;;;;;;;;;;;;4992065;28;19932;-48
2022/03/09 09:39:27;;;;;;;;;;;;;;;;;;5009461;28;19910;-51
2022/03/09 09:41:53;;;;;;;;;;;;;;;;;;5009693;28;20364;-44
2022/03/09 09:44:20;;;;;;;;;;;;;;;;;;5007164;28;19909;-46
2022/03/09 09:46:46;;;;;;;;;;;;;;;;;;5013316;28;19910;-49
2022/03/09 09:49:13;;;;;;;;;;;;;;;;;;5013418;28;19959;-47
2022/03/09 09:51:39;;;;;;;;;;;;;;;;;;5013116;28;19920;-50
2022/03/09 09:54:05;;;;;;;;;;;;;;;;;;5010624;28;20148;-47
2022/03/09 09:56:32;;;;;;;;;;;;;;;;;;5013380;28;19917;-54
2022/03/09 09:58:58;;;;;;;;;;;;;;;;;;5013540;28;20371;-49
2022/03/09 10:01:25;;;;;;;;;;;;;;;;;;5012958;28;19910;-52
2022/03/09 10:03:51;;;;;;;;;;;;;;;;;;5010673;28;20340;-50
2022/03/09 10:06:18;;;;;;;;;;;;;;;;;;5012818;28;20263;-51
2022/03/09 10:08:44;;;;;;;;;;;;;;;;;;4995294;28;19921;-50
2022/03/09 10:11:11;;;;;;;;;;;;;;;;;;5012299;28;19969;-54
2022/03/09 10:13:40;;;;;;;;;;;;;;;;;;5012582;28;19909;-48
2022/03/09 10:16:06;;;;;;;;;;;;;;;;;;5011286;28;19921;-59
2022/03/09 10:18:33;;;;;;;;;;;;;;;;;;5012608;28;20363;-60
2022/03/09 10:20:59;;;;;;;;;;;;;;;;;;5012385;28;19909;-66
2022/03/09 10:23:26;;;;;;;;;;;;;;;;;;5012579;28;20024;-58
2022/03/09 10:25:52;;;;;;;;;;;;;;;;;;5009841;28;19917;-51
2022/03/09 10:28:19;;;;;;;;;;;;;;;;;;5011865;28;20003;-44
2022/03/09 10:30:45;;;;;;;;;;;;;;;;;;5012769;28;19925;-47
2022/03/09 10:33:12;;;;;;;;;;;;;;;;;;4994949;28;19989;-54
2022/03/09 10:35:41;;;;;;;;;;;;;;;;;;5009157;28;19920;-45
2022/03/09 10:38:07;;;;;;;;;;;;;;;;;;5011733;28;19922;-53
2022/03/09 10:40:34;;;;;;;;;;;;;;;;;;5009967;28;19956;-50
2022/03/09 10:43:00;;;;;;;;;;;;;;;;;;5011840;28;20410;-50
2022/03/09 10:45:27;;;;;;;;;;;;;;;;;;5009257;28;20319;-56
2022/03/09 10:47:53;;;;;;;;;;;;;;;;;;5011653;28;19909;-59
2022/03/09 10:50:20;;;;;;;;;;;;;;;;;;5010043;28;19917;-56
2022/03/09 10:52:46;;;;;;;;;;;;;;;;;;5011889;28;19956;-60
2022/03/09 10:55:13;;;;;;;;;;;;;;;;;;5008161;28;19918;-57
2022/03/09 10:57:39;;;;;;;;;;;;;;;;;;4994360;28;20040;-49
2022/03/09 11:00:06;;;;;;;;;;;;;;;;;;5011729;28;20322;-48
2022/03/09 11:02:39;;;;;;;;;;;;;;;;;;5011750;28;20263;-58
2022/03/09 11:05:06;;;;;;;;;;;;;;;;;;5008877;28;19909;-59
2022/03/09 11:07:33;;;;;;;;;;;;;;;;;;5012028;28;19919;-58
2022/03/09 11:09:59;;;;;;;;;;;;;;;;;;5011187;28;20000;-62
2022/03/09 11:12:26;;;;;;;;;;;;;;;;;;5011587;28;19910;-45
2022/03/09 11:14:52;;;;;;;;;;;;;;;;;;5008681;28;19910;-47
2022/03/09 11:17:19;;;;;;;;;;;;;;;;;;5011327;28;20059;-50
2022/03/09 11:19:45;;;;;;;;;;;;;;;;;;5011117;28;20020;-47
2022/03/09 11:22:12;;;;;;;;;;;;;;;;;;5010938;28;19917;-52
2022/03/09 11:24:39;;;;;;;;;;;;;;;;;;5008311;28;19961;-48
2022/03/09 11:27:07;;;;;;;;;;;;;;;;;;5012632;28;19959;-61
2022/03/09 11:29:35;;;;;;;;;;;;;;;;;;5013462;28;19936;-64
2022/03/09 11:32:01;;;;;;;;;;;;;;;;;;5013583;28;19921;-56
2022/03/09 11:34:27;;;;;;;;;;;;;;;;;;5014359;28;20028;-56
2022/03/09 11:36:54;;;;;;;;;;;;;;;;;;5014311;28;20368;-47
2022/03/09 11:39:23;;;;;;;;;;;;;;;;;;5014230;28;19913;-50
2022/03/09 11:41:50;;;;;;;;;;;;;;;;;;5013913;28;19924;-46
2022/03/09 11:44:16;;;;;;;;;;;;;;;;;;5014142;28;19987;-52
2022/03/09 11:46:42;;;;;;;;;;;;;;;;;;5014291;28;19909;-51
2022/03/09 11:49:09;;;;;;;;;;;;;;;;;;5012971;28;19992;-52
2022/03/09 11:51:35;;;;;;;;;;;;;;;;;;4999930;28;19914;-48
2022/03/09 11:54:02;;;;;;;;;;;;;;;;;;4994329;28;20351;-51
2022/03/09 11:56:28;;;;;;;;;;;;;;;;;;4994521;28;19932;-50
2022/03/09 11:58:55;;;;;;;;;;;;;;;;;;4994305;28;19910;-62
2022/03/09 12:01:21;;;;;;;;;;;;;;;;;;4994689;28;20304;-65
2022/03/09 12:03:48;;;;;;;;;;;;;;;;;;4993969;28;19913;-64
2022/03/09 12:06:15;;;;;;;;;;;;;;;;;;4993965;28;20308;-48
2022/03/09 12:08:41;;;;;;;;;;;;;;;;;;4994242;28;19976;-62
2022/03/09 12:11:08;;;;;;;;;;;;;;;;;;4993684;28;20333;-62
2022/03/09 12:13:38;;;;;;;;;;;;;;;;;;4992887;28;20407;-57
2022/03/09 12:16:04;;;;;;;;;;;;;;;;;;4994042;28;19910;-62
2022/03/09 12:18:31;;;;;;;;;;;;;;;;;;4994156;28;19910;-63
2022/03/09 12:20:58;;;;;;;;;;;;;;;;;;4993410;28;19910;-56
2022/03/09 12:23:24;;;;;;;;;;;;;;;;;;4993820;28;19946;-63
2022/03/09 12:25:51;;;;;;;;;;;;;;;;;;4993461;28;19910;-69
2022/03/09 12:28:17;;;;;;;;;;;;;;;;;;5009079;28;19909;-63
2022/03/09 12:30:47;;;;;;;;;;;;;;;;;;4993645;28;19988;-63
2022/03/09 12:33:14;;;;;;;;;;;;;;;;;;4993933;28;20356;-55
2022/03/09 12:35:40;;;;;;;;;;;;;;;;;;4992962;28;20376;-65
2022/03/09 12:38:07;;;;;;;;;;;;;;;;;;4993610;28;20288;-58
2022/03/09 12:40:33;;;;;;;;;;;;;;;;;;4993302;28;19920;-66
2022/03/09 12:43:00;;;;;;;;;;;;;;;;;;4992613;28;19924;-61
2022/03/09 12:45:26;;;;;;;;;;;;;;;;;;4993861;28;19910;-59
2022/03/09 12:47:54;;;;;;;;;;;;;;;;;;4993469;28;19917;-62
2022/03/09 12:50:21;;;;;;;;;;;;;;;;;;4993243;28;20000;-66
2022/03/09 12:52:47;;;;;;;;;;;;;;;;;;4993797;28;19917;-59
2022/03/09 12:55:14;;;;;;;;;;;;;;;;;;4993441;28;20336;-66
2022/03/09 12:57:40;;;;;;;;;;;;;;;;;;4993276;28;19937;-52
2022/03/09 13:00:11;;;;;;;;;;;;;;;;;;4993356;28;19916;-65
2022/03/09 13:02:37;;;;;;;;;;;;;;;;;;4993606;28;19910;-66
2022/03/09 13:05:04;;;;;;;;;;;;;;;;;;4993510;28;19910;-62
2022/03/09 13:07:30;;;;;;;;;;;;;;;;;;4993212;28;19996;-62
2022/03/09 13:09:57;;;;;;;;;;;;;;;;;;4993103;28;20446;-60
2022/03/09 13:12:23;;;;;;;;;;;;;;;;;;4993391;28;19914;-60
2022/03/09 13:14:50;;;;;;;;;;;;;;;;;;4991841;28;19945;-48
2022/03/09 13:17:16;;;;;;;;;;;;;;;;;;5006429;28;19910;-49
2022/03/09 13:19:43;;;;;;;;;;;;;;;;;;5008577;28;19916;-47
2022/03/09 13:22:09;;;;;;;;;;;;;;;;;;5007842;28;19924;-55
2022/03/09 13:24:36;;;;;;;;;;;;;;;;;;5010077;28;19910;-47
2022/03/09 13:27:02;;;;;;;;;;;;;;;;;;5009660;28;19957;-55
2022/03/09 13:29:31;;;;;;;;;;;;;;;;;;5009986;28;19917;-52
2022/03/09 13:32:02;;;;;;;;;;;;;;;;;;5007923;28;19910;-56
2022/03/09 13:34:33;;;;;;;;;;;;;;;;;;5008507;28;20412;-46
2022/03/09 13:37:00;;;;;;;;;;;;;;;;;;5009200;28;20044;-45
2022/03/09 13:39:26;;;;;;;;;;;;;;;;;;5010316;28;20327;-50
2022/03/09 13:41:53;;;;;;;;;;;;;;;;;;5005906;28;19965;-51
2022/03/09 13:44:19;;;;;;;;;;;;;;;;;;5009720;28;19925;-43
2022/03/09 13:46:45;;;;;;;;;;;;;;;;;;5009425;28;19975;-46
2022/03/09 13:49:12;;;;;;;;;;;;;;;;;;5009492;28;19941;-56
2022/03/09 13:51:39;;;;;;;;;;;;;;;;;;5005673;28;20403;-49
2022/03/09 13:54:05;;;;;;;;;;;;;;;;;;5007512;28;19914;-62
2022/03/09 13:56:34;;;;;;;;;;;;;;;;;;5009825;28;20372;-47
2022/03/09 13:59:00;;;;;;;;;;;;;;;;;;5009291;28;19910;-58
2022/03/09 14:01:27;;;;;;;;;;;;;;;;;;5005946;28;20037;-45
2022/03/09 14:03:54;;;;;;;;;;;;;;;;;;5008531;28;19913;-47
2022/03/09 14:06:20;;;;;;;;;;;;;;;;;;5009491;28;19909;-55
2022/03/09 14:08:47;;;;;;;;;;;;;;;;;;5008864;28;19964;-56
2022/03/09 14:11:14;;;;;;;;;;;;;;;;;;5006557;28;19953;-52
2022/03/09 14:13:40;;;;;;;;;;;;;;;;;;5009063;28;19917;-58
2022/03/09 14:16:07;;;;;;;;;;;;;;;;;;5009329;28;20380;-46
2022/03/09 14:18:33;;;;;;;;;;;;;;;;;;5008635;28;19917;-51
2022/03/09 14:21:00;;;;;;;;;;;;;;;;;;5006513;28;19914;-57
2022/03/09 14:23:28;;;;;;;;;;;;;;;;;;5008456;28;19910;-46
2022/03/09 14:25:54;;;;;;;;;;;;;;;;;;5008826;28;19925;-51
2022/03/09 14:28:21;;;;;;;;;;;;;;;;;;5009844;28;19936;-52
2022/03/09 14:30:47;;;;;;;;;;;;;;;;;;5008150;28;19926;-54
2022/03/09 14:33:14;;;;;;;;;;;;;;;;;;5012173;28;19996;-55
2022/03/09 14:35:40;;;;;;;;;;;;;;;;;;5012204;28;19909;-56
2022/03/09 14:38:06;;;;;;;;;;;;;;;;;;4995045;28;20346;-51
2022/03/09 14:40:33;;;;;;;;;;;;;;;;;;5009844;28;20599;-48
2022/03/09 14:42:59;;;;;;;;;;;;;;;;;;4994138;28;20253;-60
2022/03/09 14:45:26;;;;;;;;;;;;;;;;;;5011804;28;19910;-64
2022/03/09 14:47:52;;;;;;;;;;;;;;;;;;5012910;28;19972;-56
2022/03/09 14:50:19;;;;;;;;;;;;;;;;;;5011388;28;19925;-50
2022/03/09 14:52:45;;;;;;;;;;;;;;;;;;5009495;28;19932;-51
2022/03/09 14:55:12;;;;;;;;;;;;;;;;;;5012607;28;19918;-56
2022/03/09 14:57:38;;;;;;;;;;;;;;;;;;5012571;28;19930;-62
2022/03/09 15:00:06;;;;;;;;;;;;;;;;;;5012445;28;20399;-54
2022/03/09 15:02:32;;;;;;;;;;;;;;;;;;5007505;28;20318;-52
2022/03/09 15:04:59;;;;;;;;;;;;;;;;;;5012111;28;19964;-50
2022/03/09 15:07:25;;;;;;;;;;;;;;;;;;5012623;28;19991;-60
2022/03/09 15:09:52;;;;;;;;;;;;;;;;;;5011902;28;19917;-46
2022/03/09 15:12:18;;;;;;;;;;;;;;;;;;5008412;28;19921;-52
2022/03/09 15:14:45;;;;;;;;;;;;;;;;;;5011948;28;20360;-46
2022/03/09 15:17:11;;;;;;;;;;;;;;;;;;5012081;28;20008;-55
2022/03/09 15:19:38;;;;;;;;;;;;;;;;;;5011265;28;20352;-50
2022/03/09 15:22:07;;;;;;;;;;;;;;;;;;5008885;28;19914;-43
2022/03/09 15:24:34;;;;;;;;;;;;;;;;;;5011602;28;19910;-55
2022/03/09 15:27:00;;;;;;;;;;;;;;;;;;5011867;28;19913;-44
2022/03/09 15:29:27;;;;;;;;;;;;;;;;;;5011531;28;19917;-49
2022/03/09 15:31:54;;;;;;;;;;;;;;;;;;5008911;28;19917;-44
2022/03/09 15:34:20;;;;;;;;;;;;;;;;;;4993069;28;19964;-47
2022/03/09 15:36:47;;;;;;;;;;;;;;;;;;5010627;28;20299;-49
2022/03/09 15:39:13;;;;;;;;;;;;;;;;;;5013226;28;19997;-66
2022/03/09 15:41:40;;;;;;;;;;;;;;;;;;5013363;28;19955;-62
2022/03/09 15:44:06;;;;;;;;;;;;;;;;;;5014315;28;19916;-66
2022/03/09 15:46:34;;;;;;;;;;;;;;;;;;5014447;28;19960;-58
2022/03/09 15:49:01;;;;;;;;;;;;;;;;;;5014578;28;20319;-56
2022/03/09 15:51:27;;;;;;;;;;;;;;;;;;5014325;28;19921;-63
2022/03/09 15:53:54;;;;;;;;;;;;;;;;;;5014145;28;20197;-66
2022/03/09 15:56:20;;;;;;;;;;;;;;;;;;4995448;28;20327;-50
2022/03/09 15:58:47;;;;;;;;;;;;;;;;;;5012396;28;19910;-65
2022/03/09 16:01:14;;;;;;;;;;;;;;;;;;5014246;28;19910;-63
2022/03/09 16:03:40;;;;;;;;;;;;;;;;;;5014143;28;19986;-62
2022/03/09 16:06:07;;;;;;;;;;;;;;;;;;5013402;28;20012;-67
2022/03/09 16:08:33;;;;;;;;;;;;;;;;;;5014386;28;20061;-48
2022/03/09 16:10:59;;;;;;;;;;;;;;;;;;5014640;28;20004;-44
2022/03/09 16:13:26;;;;;;;;;;;;;;;;;;5014461;28;19910;-48
2022/03/09 16:15:52;;;;;;;;;;;;;;;;;;5014532;28;19917;-53
2022/03/09 16:18:19;;;;;;;;;;;;;;;;;;5014260;28;20363;-45
2022/03/09 16:20:45;;;;;;;;;;;;;;;;;;5014508;28;19905;-45
2022/03/09 16:23:12;;;;;;;;;;;;;;;;;;5014325;28;19913;-47
2022/03/09 16:25:38;;;;;;;;;;;;;;;;;;5014321;28;20286;-53
2022/03/09 16:28:05;;;;;;;;;;;;;;;;;;5014404;28;19932;-59
2022/03/09 16:30:31;;;;;;;;;;;;;;;;;;5014635;28;19917;-53
2022/03/09 16:32:58;;;;;;;;;;;;;;;;;;5014493;28;19913;-50
2022/03/09 16:35:24;;;;;;;;;;;;;;;;;;5013820;28;19909;-56
2022/03/09 16:37:51;;;;;;;;;;;;;;;;;;5013864;28;19928;-62
2022/03/09 16:40:20;;;;;;;;;;;;;;;;;;5014047;28;20287;-59
2022/03/09 16:42:48;;;;;;;;;;;;;;;;;;5013856;28;19910;-65
2022/03/09 16:45:15;;;;;;;;;;;;;;;;;;5013673;28;20422;-65
2022/03/09 16:47:41;;;;;;;;;;;;;;;;;;4996325;28;19920;-67